Time;durP1;ratioP1;P1;durP2;ratioP2;P2;SDS_P1;SDS_P2;PMS_P1;PMS_P2;Temp;Humidity;BMP_temperature;BMP_pressure;BME280_temperature;BME280_humidity;BME280_pressure;Samples;Min_cycle;Max_cycle;Signal;HPM_P1;HPM_P2
2024/04/02 00:03:24;;;;;;;3.58;2.30;;;8.80;17.60;;;;;;20269780;29;20071;-45
2024/04/02 00:13:24;;;;;;;3.58;2.20;;;8.80;19.10;;;;;;20264037;29;20056;-46
2024/04/02 00:23:25;;;;;;;3.80;2.17;;;8.80;16.20;;;;;;20276708;29;20287;-46
2024/04/02 00:33:27;;;;;;;3.63;1.83;;;8.80;20.80;;;;;;20269447;29;20045;-46
2024/04/02 00:43:28;;;;;;;3.63;1.90;;;8.70;20.10;;;;;;20285036;29;20103;-46
2024/04/02 00:53:30;;;;;;;5.00;2.28;;;8.70;22.50;;;;;;20282456;29;20055;-46
2024/04/02 01:03:31;;;;;;;3.97;1.93;;;8.70;20.50;;;;;;20284110;29;20045;-47
2024/04/02 01:13:34;;;;;;;3.83;1.80;;;8.70;20.00;;;;;;20262292;29;20784;-47
2024/04/02 01:23:34;;;;;;;3.17;1.70;;;8.50;22.70;;;;;;20283551;29;20475;-46
2024/04/02 01:33:35;;;;;;;4.05;2.13;;;8.50;24.40;;;;;;20277701;29;20528;-46
2024/04/02 01:43:36;;;;;;;5.18;2.20;;;8.40;27.40;;;;;;20284170;29;20056;-46
2024/04/02 01:53:37;;;;;;;4.35;2.05;;;8.30;33.60;;;;;;20278586;29;20044;-46
2024/04/02 02:03:37;;;;;;;4.90;2.10;;;8.20;43.10;;;;;;20270222;29;20044;-46
2024/04/02 02:13:38;;;;;;;4.68;2.20;;;8.10;47.40;;;;;;20265383;29;20432;-46
2024/04/02 02:23:40;;;;;;;5.13;2.45;;;8.10;50.40;;;;;;20275677;29;20048;-46
2024/04/02 02:33:41;;;;;;;3.88;2.35;;;8.10;55.50;;;;;;20276510;29;20521;-46
2024/04/02 02:43:42;;;;;;;5.35;2.75;;;7.90;65.50;;;;;;20271298;29;20516;-46
2024/04/02 02:53:42;;;;;;;4.75;2.33;;;7.80;70.20;;;;;;20280988;29;20051;-47
2024/04/02 03:03:51;;;;;;;4.30;2.38;;;7.90;73.40;;;;;;20272957;29;20437;-47
2024/04/02 03:13:52;;;;;;;5.07;3.03;;;7.80;83.40;;;;;;20270481;29;20056;-46
2024/04/02 03:23:55;;;;;;;5.93;3.38;;;7.80;90.70;;;;;;20273120;29;20478;-46
2024/04/02 03:33:57;;;;;;;5.57;3.35;;;7.70;96.30;;;;;;20272360;29;20116;-46
2024/04/02 03:43:58;;;;;;;6.80;3.20;;;7.70;95.00;;;;;;20267750;29;20308;-46
2024/04/02 03:53:58;;;;;;;5.43;2.95;;;7.70;95.70;;;;;;20269260;29;20048;-46
2024/04/02 04:03:59;;;;;;;7.30;2.63;;;7.80;97.50;;;;;;20269665;29;20048;-46
2024/04/02 04:14:01;;;;;;;5.38;2.72;;;7.90;95.40;;;;;;20266444;29;20559;-46
2024/04/02 04:24:02;;;;;;;5.75;2.70;;;7.80;97.30;;;;;;20267602;29;20049;-46
2024/04/02 04:34:03;;;;;;;7.88;2.90;;;7.80;99.90;;;;;;20267730;29;20044;-46
2024/04/02 04:44:04;;;;;;;7.22;2.92;;;7.70;99.90;;;;;;20265624;29;20861;-46
2024/04/02 04:54:04;;;;;;;8.13;2.97;;;7.80;99.90;;;;;;20269420;29;20048;-46
2024/04/02 05:04:05;;;;;;;5.40;2.67;;;7.70;99.90;;;;;;20260042;29;20539;-46
2024/04/02 05:14:05;;;;;;;5.72;2.53;;;7.80;99.90;;;;;;20267382;29;20453;-47
2024/04/02 05:24:06;;;;;;;8.85;2.78;;;8.00;99.90;;;;;;20262896;29;20055;-47
2024/04/02 05:34:07;;;;;;;7.03;2.50;;;8.00;99.90;;;;;;20261935;29;20385;-46
2024/04/02 05:44:07;;;;;;;9.23;4.65;;;8.10;99.90;;;;;;20262016;29;20521;-46
2024/04/02 05:54:08;;;;;;;13.40;5.07;;;8.20;99.90;;;;;;20266942;29;20046;-47
2024/04/02 06:04:09;;;;;;;6.78;3.83;;;8.20;99.90;;;;;;20277123;29;20417;-46
2024/04/02 06:14:09;;;;;;;10.93;6.15;;;8.50;99.90;;;;;;20264226;29;20045;-47
2024/04/02 06:24:10;;;;;;;5.90;2.97;;;8.50;99.90;;;;;;20273694;29;20080;-47
2024/04/02 06:34:11;;;;;;;9.27;2.40;;;8.70;99.90;;;;;;20263686;29;20513;-47
2024/04/02 06:44:11;;;;;;;10.23;2.72;;;8.90;99.90;;;;;;20259671;29;20075;-46
2024/04/02 06:54:12;;;;;;;6.10;2.50;;;9.10;99.90;;;;;;20264000;29;20040;-46
2024/04/02 07:04:12;;;;;;;8.77;3.65;;;9.20;95.70;;;;;;20281790;29;20051;-47
2024/04/02 07:14:13;;;;;;;8.27;3.13;;;9.40;88.80;;;;;;20280687;29;20041;-47
2024/04/02 07:24:14;;;;;;;9.32;2.53;;;9.50;69.70;;;;;;20276671;29;20075;-45
2024/04/02 07:34:14;;;;;;;21.63;6.70;;;9.60;65.30;;;;;;20271057;29;20052;-46
2024/04/02 07:44:15;;;;;;;21.75;5.82;;;9.70;59.00;;;;;;20271367;29;20068;-46
2024/04/02 07:54:15;;;;;;;12.20;4.38;;;9.80;57.50;;;;;;20269564;29;20044;-46
2024/04/02 08:04:17;;;;;;;10.05;4.28;;;10.00;49.60;;;;;;20259207;29;20049;-46
2024/04/02 08:14:22;;;;;;;11.85;4.47;;;10.00;43.40;;;;;;20266519;29;20036;-47
2024/04/02 08:24:26;;;;;;;17.92;5.30;;;10.10;39.00;;;;;;20267584;29;20064;-47
2024/04/02 08:34:26;;;;;;;12.00;4.50;;;10.30;30.80;;;;;;20261309;29;20048;-47
2024/04/02 08:44:36;;;;;;;14.75;4.60;;;10.50;19.40;;;;;;20253727;29;20079;-47
2024/04/02 08:54:36;;;;;;;8.77;2.95;;;10.60;7.60;;;;;;20260592;29;20055;-47
2024/04/02 09:04:37;;;;;;;9.70;2.60;;;10.90;4.70;;;;;;20262816;29;20052;-47
2024/04/02 09:14:38;;;;;;;9.68;2.05;;;11.10;1.00;;;;;;20264015;29;20500;-47
2024/04/02 09:24:39;;;;;;;6.75;2.40;;;11.40;1.00;;;;;;20264456;29;20176;-47
2024/04/02 09:34:41;;;;;;;8.23;2.80;;;11.30;1.00;;;;;;20262336;29;20044;-47
2024/04/02 09:44:45;;;;;;;8.40;2.95;;;11.50;1.00;;;;;;20258369;29;20047;-47
2024/04/02 09:54:46;;;;;;;14.13;4.28;;;11.70;1.00;;;;;;20264482;29;20060;-47
2024/04/02 10:04:47;;;;;;;12.15;4.70;;;11.20;1.00;;;;;;20259467;29;20152;-47
2024/04/02 10:14:48;;;;;;;9.68;4.55;;;11.00;11.90;;;;;;20259139;29;20068;-47
2024/04/02 10:25:12;;;;;;;8.68;4.10;;;11.00;10.60;;;;;;20274771;29;20063;-48
2024/04/02 10:35:17;;;;;;;11.02;4.97;;;10.90;29.00;;;;;;20274880;29;20043;-47
2024/04/02 10:45:19;;;;;;;10.10;4.60;;;10.90;45.60;;;;;;20279209;29;20172;-47
2024/04/02 10:55:20;;;;;;;9.73;4.95;;;11.10;34.90;;;;;;20283258;29;20040;-48
2024/04/02 11:05:20;;;;;;;9.82;5.57;;;11.30;29.40;;;;;;20279846;29;20082;-47
2024/04/02 11:15:21;;;;;;;11.10;4.90;;;11.50;25.70;;;;;;20276195;29;20508;-48
2024/04/02 11:25:22;;;;;;;9.10;4.70;;;12.00;16.20;;;;;;20280839;29;20605;-46
2024/04/02 11:35:22;;;;;;;13.68;4.70;;;12.20;9.10;;;;;;20279319;29;20405;-47
2024/04/02 11:45:23;;;;;;;12.90;4.40;;;12.30;7.40;;;;;;20268329;29;20228;-47
2024/04/02 11:55:24;;;;;;;11.23;4.78;;;11.70;16.50;;;;;;20263658;29;20535;-47
2024/04/02 12:05:24;;;;;;;7.57;3.80;;;11.40;57.90;;;;;;20268021;29;20145;-48
2024/04/02 12:15:25;;;;;;;7.90;3.47;;;11.80;44.90;;;;;;20263798;29;20084;-46
2024/04/02 12:25:26;;;;;;;10.30;3.13;;;12.00;21.50;;;;;;20261981;29;20041;-47
2024/04/02 12:35:28;;;;;;;5.40;2.50;;;12.00;1.80;;;;;;20264535;29;20048;-46
2024/04/02 12:45:29;;;;;;;9.10;4.20;;;11.60;16.70;;;;;;20263953;29;20825;-47
2024/04/02 12:55:32;;;;;;;6.47;3.75;;;11.40;67.00;;;;;;20265835;29;20044;-46
2024/04/02 13:05:39;;;;;;;11.23;5.57;;;11.10;76.30;;;;;;20264629;29;20052;-48
2024/04/02 13:15:40;;;;;;;;;;;10.70;99.90;;;;;;20266724;29;20049;-46
2024/04/02 13:25:41;;;;;;;10.82;5.93;;;10.70;99.90;;;;;;20264344;29;20009;-48
2024/04/02 13:35:42;;;;;;;14.25;6.40;;;10.60;99.90;;;;;;20262108;29;20136;-47
2024/04/02 13:45:42;;;;;;;7.00;3.83;;;10.80;99.90;;;;;;20259951;29;20057;-47
2024/04/02 13:55:54;;;;;;;4.25;1.70;;;11.40;99.90;;;;;;20261727;29;20140;-48
2024/04/02 14:05:59;;;;;;;5.78;1.73;;;11.80;95.90;;;;;;20257980;29;20116;-47
2024/04/02 14:16:00;;;;;;;6.60;1.90;;;11.90;34.30;;;;;;20255995;29;20048;-47
2024/04/02 14:26:02;;;;;;;6.45;1.90;;;11.80;23.10;;;;;;20254342;29;20048;-48
2024/04/02 14:36:03;;;;;;;4.40;1.70;;;11.60;26.90;;;;;;20264310;29;20784;-49
2024/04/02 14:46:05;;;;;;;10.05;2.33;;;11.70;28.50;;;;;;20261165;29;20174;-47
2024/04/02 14:56:06;;;;;;;9.80;1.65;;;11.40;53.60;;;;;;20259412;29;20508;-48
2024/04/02 15:06:11;;;;;;;9.30;1.77;;;11.70;57.40;;;;;;20260196;29;20523;-47
2024/04/02 15:16:11;;;;;;;10.82;1.70;;;11.80;31.20;;;;;;20265417;29;20509;-48
2024/04/02 15:26:12;;;;;;;6.72;1.38;;;11.80;20.30;;;;;;20268527;29;20086;-48
2024/04/02 15:36:12;;;;;;;6.63;0.90;;;12.10;3.40;;;;;;20283130;29;20505;-47
2024/04/02 15:46:13;;;;;;;4.55;1.17;;;12.20;1.00;;;;;;20281253;29;20077;-47
2024/04/02 15:56:14;;;;;;;5.60;1.25;;;12.10;1.00;;;;;;20278202;29;20904;-47
2024/04/02 16:06:16;;;;;;;9.55;1.13;;;12.10;1.00;;;;;;20284156;29;20045;-48
2024/04/02 16:16:16;;;;;;;8.07;1.80;;;12.10;1.00;;;;;;20285025;29;20243;-46
2024/04/02 16:26:17;;;;;;;5.88;0.98;;;12.00;1.00;;;;;;20284849;29;20748;-47
2024/04/02 16:36:18;;;;;;;7.15;1.20;;;12.10;1.00;;;;;;20280124;29;20048;-47
2024/04/02 16:46:19;;;;;;;13.15;1.30;;;12.10;1.00;;;;;;20271745;29;20523;-47
2024/04/02 16:56:19;;;;;;;8.70;1.30;;;12.30;1.00;;;;;;20265828;29;20368;-47
2024/04/02 17:06:20;;;;;;;6.85;1.33;;;12.30;1.00;;;;;;20276042;29;20511;-48
2024/04/02 17:16:21;;;;;;;9.07;1.50;;;12.30;1.00;;;;;;20257575;29;20441;-47
2024/04/02 17:26:22;;;;;;;9.32;1.45;;;12.00;1.00;;;;;;20265175;29;20055;-47
2024/04/02 17:36:22;;;;;;;9.95;2.50;;;12.00;1.00;;;;;;20268264;29;20033;-47
2024/04/02 17:46:23;;;;;;;12.75;2.50;;;12.00;1.00;;;;;;20266773;29;20100;-47
2024/04/02 17:56:24;;;;;;;8.95;1.60;;;12.10;1.00;;;;;;20266054;29;20417;-46
2024/04/02 18:06:26;;;;;;;9.40;1.60;;;12.00;1.00;;;;;;20268010;29;20516;-46
2024/04/02 18:16:26;;;;;;;10.30;1.60;;;11.70;1.00;;;;;;20256518;29;20049;-47
2024/04/02 18:26:27;;;;;;;14.60;2.28;;;11.80;1.50;;;;;;20257061;29;20051;-47
2024/04/02 18:36:28;;;;;;;12.88;2.35;;;11.70;1.00;;;;;;20255315;29;20075;-47
2024/04/02 18:46:29;;;;;;;17.30;2.22;;;11.50;1.00;;;;;;20256812;29;20350;-47
2024/04/02 18:56:30;;;;;;;14.68;2.83;;;11.40;1.20;;;;;;20256689;29;20084;-47
2024/04/02 19:06:32;;;;;;;16.25;3.95;;;11.30;1.00;;;;;;20268312;29;20052;-47
2024/04/02 19:16:34;;;;;;;25.52;2.85;;;11.10;1.00;;;;;;20264189;29;20055;-47
2024/04/02 19:26:34;;;;;;;20.17;3.70;;;11.00;1.00;;;;;;20265716;29;20134;-47
2024/04/02 19:36:35;;;;;;;13.20;2.40;;;11.00;1.00;;;;;;20262953;29;20050;-47
2024/04/02 19:46:36;;;;;;;9.57;2.17;;;10.80;1.00;;;;;;20260205;29;20055;-48
2024/04/02 19:56:36;;;;;;;17.00;2.88;;;10.70;2.30;;;;;;20261687;29;20562;-46
2024/04/02 20:06:37;;;;;;;17.70;3.58;;;10.50;5.40;;;;;;20262238;29;20127;-46
2024/04/02 20:16:38;;;;;;;14.05;3.33;;;10.50;8.00;;;;;;20265348;29;21169;-47
2024/04/02 20:26:38;;;;;;;17.07;3.77;;;10.50;8.40;;;;;;20269159;29;20049;-47
2024/04/02 20:36:39;;;;;;;18.05;3.40;;;10.50;14.10;;;;;;20273206;29;20545;-47
2024/04/02 20:46:40;;;;;;;18.73;3.92;;;10.40;21.70;;;;;;20264968;29;20088;-47
2024/04/02 20:56:41;;;;;;;15.50;4.35;;;10.40;29.70;;;;;;20264313;29;20036;-47
2024/04/02 21:06:41;;;;;;;17.20;3.55;;;10.30;39.20;;;;;;20265616;29;20079;-48
2024/04/02 21:16:42;;;;;;;16.50;3.85;;;10.30;46.00;;;;;;20258389;29;20401;-47
2024/04/02 21:26:45;;;;;;;17.90;5.15;;;10.30;53.60;;;;;;20274490;29;20048;-47
2024/04/02 21:36:46;;;;;;;18.10;3.85;;;10.30;64.90;;;;;;20266740;29;20044;-47
2024/04/02 21:46:47;;;;;;;19.33;4.37;;;10.40;63.10;;;;;;20265757;29;20139;-47
2024/04/02 21:56:48;;;;;;;18.33;4.40;;;10.50;58.10;;;;;;20267613;29;20863;-47
2024/04/02 22:06:48;;;;;;;16.15;4.07;;;10.50;52.70;;;;;;20266994;29;20051;-47
2024/04/02 22:16:49;;;;;;;9.40;3.03;;;10.60;40.80;;;;;;20260422;29;20047;-47
2024/04/02 22:26:49;;;;;;;15.00;3.30;;;10.60;42.60;;;;;;20265201;29;20108;-47
2024/04/02 22:36:50;;;;;;;14.85;3.35;;;10.50;47.00;;;;;;20280096;29;20051;-46
2024/04/02 22:46:51;;;;;;;11.60;3.20;;;10.50;57.40;;;;;;20283748;29;20599;-47
2024/04/02 22:56:52;;;;;;;12.13;3.90;;;10.40;72.60;;;;;;20273183;29;20453;-47
2024/04/02 23:06:53;;;;;;;20.48;4.97;;;10.40;85.90;;;;;;20280002;29;20052;-47
2024/04/02 23:16:53;;;;;;;11.48;3.85;;;10.40;94.70;;;;;;20279712;29;20089;-48
2024/04/02 23:26:54;;;;;;;15.82;3.88;;;10.20;99.90;;;;;;20279888;29;20067;-48
2024/04/02 23:36:54;;;;;;;9.95;3.50;;;10.00;99.90;;;;;;20281482;29;20045;-47
2024/04/02 23:46:55;;;;;;;12.20;3.90;;;9.80;99.90;;;;;;20277687;29;20127;-47
2024/04/02 23:56:56;;;;;;;14.82;4.72;;;9.70;99.90;;;;;;20274535;29;20097;-47
